Egnar, Colorado
Current Conditions -  °F | °C
As of 2:15 AM on Sunday 26 Oct 2014 (Local Time) from KAIB Reporting Station
Scattered Clouds Scattered Clouds  
Wind Chill: 55°   Ceiling: Unl
Heat Index: 55°   Visibility: 10mi
Dew Point: 34°   Wind: 7mph
Humidity: 44%   Direction: 120°ESE
Pressure: 30.15"   Gusts: NA
Location:  37.92°N, 108.94°W
Report Text: KAIB 260815Z AUTO 12006KT 10SM SCT075 13/01 A3015 RMK AO2
Loading
Personal Weather Stations






























Interactive Weather Map
Tropical Storm Tracking
New forecast layout! Learn more

10-Day Weather Forecast

Advertisements
Track Severe Weather on mobile